Airport View

Enter ICAO identifier to see the current METAR for that AWOS.

KFNL for example

KFWC 301955Z AUTO 19009G14KT 10SM SCT014 26/24 A2997

30 Aug 2014 20:26

Frequency: 119.425

Phone: 618-847-4709

Other Area AWOS: KFOA - KMVN - KCUL - KOLY

TAF AMD KEVV 302020Z 3020/3118 17005KT 5SM -SHRA BR VCTS SCT030CB BKN080 FM302200 20006KT 6SM -SHRA BR VCTS SCT015CB BKN040 FM310000 19006KT P6SM -SHRA BKN035 FM310600 20005KT 6SM -SHRA BR SCT015 BKN030 PROB30 3109/3115 4SM TSRA BR BKN015CB FM311500 19006KT P6SM BKN030